sensor_id;sensor_type;location;lat;lon;timestamp;temperature;humidity
67870;DHT22;54673;52.262;6.830;2024-01-25T00:00:17;8.10;99.90
67870;DHT22;54673;52.262;6.830;2024-01-25T00:02:43;7.30;99.90
67870;DHT22;54673;52.262;6.830;2024-01-25T00:05:08;8.60;99.90
67870;DHT22;54673;52.262;6.830;2024-01-25T00:07:34;8.10;99.90
67870;DHT22;54673;52.262;6.830;2024-01-25T00:10:00;8.50;99.90
67870;DHT22;54673;52.262;6.830;2024-01-25T00:12:26;8.50;99.90
67870;DHT22;54673;52.262;6.830;2024-01-25T00:14:53;6.70;99.90
67870;DHT22;54673;52.262;6.830;2024-01-25T00:17:31;7.10;99.90
67870;DHT22;54673;52.262;6.830;2024-01-25T00:19:57;6.50;99.90
67870;DHT22;54673;52.262;6.830;2024-01-25T00:22:22;7.80;99.90
67870;DHT22;54673;52.262;6.830;2024-01-25T00:24:48;7.30;99.90
67870;DHT22;54673;52.262;6.830;2024-01-25T00:27:14;8.00;99.90
67870;DHT22;54673;52.262;6.830;2024-01-25T00:29:39;8.20;99.90
67870;DHT22;54673;52.262;6.830;2024-01-25T00:32:05;8.20;99.90
67870;DHT22;54673;52.262;6.830;2024-01-25T00:34:31;7.20;99.90
67870;DHT22;54673;52.262;6.830;2024-01-25T00:36:57;7.20;99.90
67870;DHT22;54673;52.262;6.830;2024-01-25T00:39:22;7.20;99.90
67870;DHT22;54673;52.262;6.830;2024-01-25T00:41:51;7.20;99.90
67870;DHT22;54673;52.262;6.830;2024-01-25T00:44:18;7.20;99.90
67870;DHT22;54673;52.262;6.830;2024-01-25T00:46:44;7.30;99.90
67870;DHT22;54673;52.262;6.830;2024-01-25T00:49:13;8.30;99.90
67870;DHT22;54673;52.262;6.830;2024-01-25T00:55:22;7.70;99.90
67870;DHT22;54673;52.262;6.830;2024-01-25T00:58:22;6.70;99.90
67870;DHT22;54673;52.262;6.830;2024-01-25T01:01:32;7.30;99.90
67870;DHT22;54673;52.262;6.830;2024-01-25T01:04:33;7.40;99.90
67870;DHT22;54673;52.262;6.830;2024-01-25T01:07:59;7.60;99.90
67870;DHT22;54673;52.262;6.830;2024-01-25T01:33:25;7.20;99.90
67870;DHT22;54673;52.262;6.830;2024-01-25T01:35:51;7.20;99.90
67870;DHT22;54673;52.262;6.830;2024-01-25T01:38:23;8.50;99.90
67870;DHT22;54673;52.262;6.830;2024-01-25T01:41:04;7.20;99.90
67870;DHT22;54673;52.262;6.830;2024-01-25T01:54:02;7.10;99.90
67870;DHT22;54673;52.262;6.830;2024-01-25T01:56:28;8.70;99.90
67870;DHT22;54673;52.262;6.830;2024-01-25T01:58:57;6.90;99.90
67870;DHT22;54673;52.262;6.830;2024-01-25T02:01:24;8.40;99.90
67870;DHT22;54673;52.262;6.830;2024-01-25T02:03:50;8.10;99.90
67870;DHT22;54673;52.262;6.830;2024-01-25T02:06:15;7.00;99.90
67870;DHT22;54673;52.262;6.830;2024-01-25T02:08:41;7.40;99.90
67870;DHT22;54673;52.262;6.830;2024-01-25T02:11:06;7.50;99.90
67870;DHT22;54673;52.262;6.830;2024-01-25T02:13:34;7.10;99.90
67870;DHT22;54673;52.262;6.830;2024-01-25T02:16:00;7.10;99.90
67870;DHT22;54673;52.262;6.830;2024-01-25T02:18:26;8.60;99.90
67870;DHT22;54673;52.262;6.830;2024-01-25T02:20:52;7.70;99.90
67870;DHT22;54673;52.262;6.830;2024-01-25T02:23:17;7.60;99.90
67870;DHT22;54673;52.262;6.830;2024-01-25T02:25:43;7.80;99.90
67870;DHT22;54673;52.262;6.830;2024-01-25T02:28:08;7.90;99.90
67870;DHT22;54673;52.262;6.830;2024-01-25T02:30:34;8.60;99.90
67870;DHT22;54673;52.262;6.830;2024-01-25T02:33:00;7.50;99.90
67870;DHT22;54673;52.262;6.830;2024-01-25T02:35:25;7.60;99.90
67870;DHT22;54673;52.262;6.830;2024-01-25T02:37:51;8.10;99.90
67870;DHT22;54673;52.262;6.830;2024-01-25T02:40:17;7.60;99.90
67870;DHT22;54673;52.262;6.830;2024-01-25T02:42:42;6.80;99.90
67870;DHT22;54673;52.262;6.830;2024-01-25T02:45:08;7.70;99.90
67870;DHT22;54673;52.262;6.830;2024-01-25T02:47:34;6.80;99.90
67870;DHT22;54673;52.262;6.830;2024-01-25T02:50:00;7.70;99.90
67870;DHT22;54673;52.262;6.830;2024-01-25T02:52:25;7.30;99.90
67870;DHT22;54673;52.262;6.830;2024-01-25T02:54:57;7.50;99.90
67870;DHT22;54673;52.262;6.830;2024-01-25T02:57:23;6.80;99.90
67870;DHT22;54673;52.262;6.830;2024-01-25T02:59:49;6.70;99.90
67870;DHT22;54673;52.262;6.830;2024-01-25T03:02:15;8.30;99.90
67870;DHT22;54673;52.262;6.830;2024-01-25T03:04:43;7.80;99.90
67870;DHT22;54673;52.262;6.830;2024-01-25T03:07:09;7.70;99.90
67870;DHT22;54673;52.262;6.830;2024-01-25T03:09:35;7.90;99.90
67870;DHT22;54673;52.262;6.830;2024-01-25T03:12:00;7.80;99.90
67870;DHT22;54673;52.262;6.830;2024-01-25T03:14:26;6.60;99.90
67870;DHT22;54673;52.262;6.830;2024-01-25T03:16:51;7.40;99.90
67870;DHT22;54673;52.262;6.830;2024-01-25T03:19:18;8.20;99.90
67870;DHT22;54673;52.262;6.830;2024-01-25T03:21:44;7.50;99.90
67870;DHT22;54673;52.262;6.830;2024-01-25T03:24:09;7.00;99.90
67870;DHT22;54673;52.262;6.830;2024-01-25T03:26:35;6.60;99.90
67870;DHT22;54673;52.262;6.830;2024-01-25T03:29:01;7.50;99.90
67870;DHT22;54673;52.262;6.830;2024-01-25T03:31:26;7.30;99.90
67870;DHT22;54673;52.262;6.830;2024-01-25T03:33:52;7.40;99.90
67870;DHT22;54673;52.262;6.830;2024-01-25T03:36:17;7.90;99.90
67870;DHT22;54673;52.262;6.830;2024-01-25T03:38:43;7.50;99.90
67870;DHT22;54673;52.262;6.830;2024-01-25T03:41:09;7.10;99.90
67870;DHT22;54673;52.262;6.830;2024-01-25T03:43:35;5.10;99.90
67870;DHT22;54673;52.262;6.830;2024-01-25T03:46:01;6.70;99.90
67870;DHT22;54673;52.262;6.830;2024-01-25T03:48:28;7.20;99.90
67870;DHT22;54673;52.262;6.830;2024-01-25T03:50:54;7.00;99.90
67870;DHT22;54673;52.262;6.830;2024-01-25T03:53:22;6.70;99.90
67870;DHT22;54673;52.262;6.830;2024-01-25T03:55:48;6.20;99.90
67870;DHT22;54673;52.262;6.830;2024-01-25T03:58:17;6.40;99.90
67870;DHT22;54673;52.262;6.830;2024-01-25T04:00:46;7.10;99.90
67870;DHT22;54673;52.262;6.830;2024-01-25T04:03:12;6.20;99.90
67870;DHT22;54673;52.262;6.830;2024-01-25T04:05:38;6.30;99.90
67870;DHT22;54673;52.262;6.830;2024-01-25T04:08:05;7.50;99.90
67870;DHT22;54673;52.262;6.830;2024-01-25T04:10:31;6.20;99.90
67870;DHT22;54673;52.262;6.830;2024-01-25T04:12:57;7.10;99.90
67870;DHT22;54673;52.262;6.830;2024-01-25T04:15:23;6.20;99.90
67870;DHT22;54673;52.262;6.830;2024-01-25T04:17:49;6.80;99.90
67870;DHT22;54673;52.262;6.830;2024-01-25T04:20:15;6.80;99.90
67870;DHT22;54673;52.262;6.830;2024-01-25T04:22:41;6.90;99.90
67870;DHT22;54673;52.262;6.830;2024-01-25T04:25:07;6.20;99.90
67870;DHT22;54673;52.262;6.830;2024-01-25T04:27:32;6.00;99.90
67870;DHT22;54673;52.262;6.830;2024-01-25T04:29:58;7.00;99.90
67870;DHT22;54673;52.262;6.830;2024-01-25T04:32:24;6.10;99.90
67870;DHT22;54673;52.262;6.830;2024-01-25T04:34:50;7.40;99.90
67870;DHT22;54673;52.262;6.830;2024-01-25T04:37:16;6.20;99.90
67870;DHT22;54673;52.262;6.830;2024-01-25T04:39:41;7.10;99.90
67870;DHT22;54673;52.262;6.830;2024-01-25T04:42:07;7.10;99.90
67870;DHT22;54673;52.262;6.830;2024-01-25T04:44:33;7.50;99.90
67870;DHT22;54673;52.262;6.830;2024-01-25T04:47:00;6.60;99.90
67870;DHT22;54673;52.262;6.830;2024-01-25T04:49:25;6.80;99.90
67870;DHT22;54673;52.262;6.830;2024-01-25T04:51:52;6.00;99.90
67870;DHT22;54673;52.262;6.830;2024-01-25T04:54:18;6.90;99.90
67870;DHT22;54673;52.262;6.830;2024-01-25T04:56:43;7.00;99.90
67870;DHT22;54673;52.262;6.830;2024-01-25T04:59:09;7.10;99.90
67870;DHT22;54673;52.262;6.830;2024-01-25T05:01:35;5.60;99.90
67870;DHT22;54673;52.262;6.830;2024-01-25T05:04:01;6.60;99.90
67870;DHT22;54673;52.262;6.830;2024-01-25T05:06:26;6.90;99.90
67870;DHT22;54673;52.262;6.830;2024-01-25T05:08:53;6.30;99.90
67870;DHT22;54673;52.262;6.830;2024-01-25T05:11:19;6.50;99.90
67870;DHT22;54673;52.262;6.830;2024-01-25T05:13:44;4.80;99.90
67870;DHT22;54673;52.262;6.830;2024-01-25T05:16:11;5.70;99.90
67870;DHT22;54673;52.262;6.830;2024-01-25T05:18:36;6.80;99.90
67870;DHT22;54673;52.262;6.830;2024-01-25T05:21:02;6.40;99.90
67870;DHT22;54673;52.262;6.830;2024-01-25T05:23:28;6.60;99.90
67870;DHT22;54673;52.262;6.830;2024-01-25T05:25:53;6.70;99.90
67870;DHT22;54673;52.262;6.830;2024-01-25T05:28:19;6.90;99.90
67870;DHT22;54673;52.262;6.830;2024-01-25T05:30:45;5.60;99.90
67870;DHT22;54673;52.262;6.830;2024-01-25T05:33:11;5.30;99.90
67870;DHT22;54673;52.262;6.830;2024-01-25T05:35:36;5.50;99.90
67870;DHT22;54673;52.262;6.830;2024-01-25T05:38:02;5.90;99.90
67870;DHT22;54673;52.262;6.830;2024-01-25T05:40:28;5.60;99.90
67870;DHT22;54673;52.262;6.830;2024-01-25T05:42:53;5.30;99.90
67870;DHT22;54673;52.262;6.830;2024-01-25T05:45:19;6.50;99.90
67870;DHT22;54673;52.262;6.830;2024-01-25T05:47:47;5.50;99.90
67870;DHT22;54673;52.262;6.830;2024-01-25T05:50:13;6.10;99.90
67870;DHT22;54673;52.262;6.830;2024-01-25T05:52:38;6.90;99.90
67870;DHT22;54673;52.262;6.830;2024-01-25T05:55:07;6.90;99.90
67870;DHT22;54673;52.262;6.830;2024-01-25T05:57:35;5.50;99.90
67870;DHT22;54673;52.262;6.830;2024-01-25T06:00:04;6.00;99.90
67870;DHT22;54673;52.262;6.830;2024-01-25T06:02:31;5.40;99.90
67870;DHT22;54673;52.262;6.830;2024-01-25T06:04:56;6.10;99.90
67870;DHT22;54673;52.262;6.830;2024-01-25T06:07:26;7.20;99.90
67870;DHT22;54673;52.262;6.830;2024-01-25T06:09:52;6.20;99.90
67870;DHT22;54673;52.262;6.830;2024-01-25T06:12:18;5.00;99.90
67870;DHT22;54673;52.262;6.830;2024-01-25T06:14:43;6.10;99.90
67870;DHT22;54673;52.262;6.830;2024-01-25T06:17:09;6.20;99.90
67870;DHT22;54673;52.262;6.830;2024-01-25T06:19:35;5.30;99.90
67870;DHT22;54673;52.262;6.830;2024-01-25T06:22:00;6.70;99.90
67870;DHT22;54673;52.262;6.830;2024-01-25T06:24:26;7.00;99.90
67870;DHT22;54673;52.262;6.830;2024-01-25T06:26:53;5.80;99.90
67870;DHT22;54673;52.262;6.830;2024-01-25T06:29:19;6.00;99.90
67870;DHT22;54673;52.262;6.830;2024-01-25T06:31:45;6.10;99.90
67870;DHT22;54673;52.262;6.830;2024-01-25T06:34:11;5.60;99.90
67870;DHT22;54673;52.262;6.830;2024-01-25T06:36:37;7.10;99.90
67870;DHT22;54673;52.262;6.830;2024-01-25T06:39:03;6.20;99.90
67870;DHT22;54673;52.262;6.830;2024-01-25T06:41:32;6.30;99.90
67870;DHT22;54673;52.262;6.830;2024-01-25T06:43:59;6.30;99.90
67870;DHT22;54673;52.262;6.830;2024-01-25T06:46:25;6.60;99.90
67870;DHT22;54673;52.262;6.830;2024-01-25T06:48:52;6.10;99.90
67870;DHT22;54673;52.262;6.830;2024-01-25T06:51:18;6.50;99.90
67870;DHT22;54673;52.262;6.830;2024-01-25T06:53:43;5.00;99.90
67870;DHT22;54673;52.262;6.830;2024-01-25T06:56:09;5.70;99.90
67870;DHT22;54673;52.262;6.830;2024-01-25T06:58:35;6.30;99.90
67870;DHT22;54673;52.262;6.830;2024-01-25T07:01:01;5.10;99.90
67870;DHT22;54673;52.262;6.830;2024-01-25T07:03:32;6.40;99.90
67870;DHT22;54673;52.262;6.830;2024-01-25T07:05:59;6.10;99.90
67870;DHT22;54673;52.262;6.830;2024-01-25T07:08:24;5.50;99.90
67870;DHT22;54673;52.262;6.830;2024-01-25T07:10:50;6.30;99.90
67870;DHT22;54673;52.262;6.830;2024-01-25T07:13:15;6.30;99.90
67870;DHT22;54673;52.262;6.830;2024-01-25T07:15:54;6.00;99.90
67870;DHT22;54673;52.262;6.830;2024-01-25T07:18:28;5.10;99.90
67870;DHT22;54673;52.262;6.830;2024-01-25T07:20:54;6.40;99.90
67870;DHT22;54673;52.262;6.830;2024-01-25T07:23:21;5.90;99.90
67870;DHT22;54673;52.262;6.830;2024-01-25T07:25:51;5.10;99.90
67870;DHT22;54673;52.262;6.830;2024-01-25T08:03:04;4.80;99.90
67870;DHT22;54673;52.262;6.830;2024-01-25T08:05:31;4.30;99.90
67870;DHT22;54673;52.262;6.830;2024-01-25T08:07:57;4.80;99.90
67870;DHT22;54673;52.262;6.830;2024-01-25T08:10:22;5.50;99.90
67870;DHT22;54673;52.262;6.830;2024-01-25T08:12:48;5.60;99.90
67870;DHT22;54673;52.262;6.830;2024-01-25T08:15:14;6.00;99.90
67870;DHT22;54673;52.262;6.830;2024-01-25T08:17:40;4.70;99.90
67870;DHT22;54673;52.262;6.830;2024-01-25T08:20:06;4.70;99.90
67870;DHT22;54673;52.262;6.830;2024-01-25T08:22:32;4.60;99.90
67870;DHT22;54673;52.262;6.830;2024-01-25T08:24:58;4.70;99.90
67870;DHT22;54673;52.262;6.830;2024-01-25T08:27:24;4.70;99.90
67870;DHT22;54673;52.262;6.830;2024-01-25T08:29:50;6.20;99.90
67870;DHT22;54673;52.262;6.830;2024-01-25T08:32:16;6.00;99.90
67870;DHT22;54673;52.262;6.830;2024-01-25T08:34:45;4.70;99.90
67870;DHT22;54673;52.262;6.830;2024-01-25T08:37:11;4.70;99.90
67870;DHT22;54673;52.262;6.830;2024-01-25T08:39:37;3.30;99.90
67870;DHT22;54673;52.262;6.830;2024-01-25T08:42:03;4.70;99.90
67870;DHT22;54673;52.262;6.830;2024-01-25T08:44:32;5.40;99.90
67870;DHT22;54673;52.262;6.830;2024-01-25T08:46:57;4.80;99.90
67870;DHT22;54673;52.262;6.830;2024-01-25T08:49:23;4.60;99.90
67870;DHT22;54673;52.262;6.830;2024-01-25T08:51:52;3.40;99.90
67870;DHT22;54673;52.262;6.830;2024-01-25T08:54:18;4.30;99.90
67870;DHT22;54673;52.262;6.830;2024-01-25T08:56:44;4.10;99.90
67870;DHT22;54673;52.262;6.830;2024-01-25T08:59:10;4.60;99.90
67870;DHT22;54673;52.262;6.830;2024-01-25T09:01:36;4.50;99.90
67870;DHT22;54673;52.262;6.830;2024-01-25T09:04:02;4.60;99.90
67870;DHT22;54673;52.262;6.830;2024-01-25T09:06:32;4.70;99.90
67870;DHT22;54673;52.262;6.830;2024-01-25T09:08:58;4.70;99.90
67870;DHT22;54673;52.262;6.830;2024-01-25T09:11:24;4.80;99.90
67870;DHT22;54673;52.262;6.830;2024-01-25T09:14:21;4.60;99.90
67870;DHT22;54673;52.262;6.830;2024-01-25T09:17:20;4.70;99.90
67870;DHT22;54673;52.262;6.830;2024-01-25T10:39:19;5.20;99.90
67870;DHT22;54673;52.262;6.830;2024-01-25T11:24:25;5.70;99.90
67870;DHT22;54673;52.262;6.830;2024-01-25T11:30:35;5.80;99.90
67870;DHT22;54673;52.262;6.830;2024-01-25T11:33:04;6.10;99.90
67870;DHT22;54673;52.262;6.830;2024-01-25T11:35:37;6.40;99.90
67870;DHT22;54673;52.262;6.830;2024-01-25T11:38:04;5.90;99.90
67870;DHT22;54673;52.262;6.830;2024-01-25T11:40:44;8.90;99.90
67870;DHT22;54673;52.262;6.830;2024-01-25T11:43:23;5.90;99.90
67870;DHT22;54673;52.262;6.830;2024-01-25T11:48:29;6.00;99.90
67870;DHT22;54673;52.262;6.830;2024-01-25T11:50:55;6.90;99.90
67870;DHT22;54673;52.262;6.830;2024-01-25T11:53:21;7.20;99.90
67870;DHT22;54673;52.262;6.830;2024-01-25T11:55:50;6.10;99.90
67870;DHT22;54673;52.262;6.830;2024-01-25T11:58:19;7.00;99.90
67870;DHT22;54673;52.262;6.830;2024-01-25T12:00:47;6.20;99.90
67870;DHT22;54673;52.262;6.830;2024-01-25T12:03:14;6.20;99.90
67870;DHT22;54673;52.262;6.830;2024-01-25T12:05:41;7.40;99.90
67870;DHT22;54673;52.262;6.830;2024-01-25T12:08:13;6.20;99.90
67870;DHT22;54673;52.262;6.830;2024-01-25T12:10:41;6.30;99.90
67870;DHT22;54673;52.262;6.830;2024-01-25T12:13:08;7.40;99.90
67870;DHT22;54673;52.262;6.830;2024-01-25T12:15:37;6.30;99.90
67870;DHT22;54673;52.262;6.830;2024-01-25T12:18:07;6.40;99.90
67870;DHT22;54673;52.262;6.830;2024-01-25T12:20:35;7.70;99.90
67870;DHT22;54673;52.262;6.830;2024-01-25T12:23:02;6.30;99.90
67870;DHT22;54673;52.262;6.830;2024-01-25T12:25:27;6.40;99.90
67870;DHT22;54673;52.262;6.830;2024-01-25T12:27:53;6.20;99.90
67870;DHT22;54673;52.262;6.830;2024-01-25T12:30:19;5.20;99.90
67870;DHT22;54673;52.262;6.830;2024-01-25T12:37:56;6.50;99.90
67870;DHT22;54673;52.262;6.830;2024-01-25T12:40:52;7.60;99.90
67870;DHT22;54673;52.262;6.830;2024-01-25T12:43:21;7.10;99.90
67870;DHT22;54673;52.262;6.830;2024-01-25T12:45:47;6.50;99.90
67870;DHT22;54673;52.262;6.830;2024-01-25T12:48:13;7.70;99.90
67870;DHT22;54673;52.262;6.830;2024-01-25T12:50:39;6.60;99.90
67870;DHT22;54673;52.262;6.830;2024-01-25T12:53:05;6.60;99.90
67870;DHT22;54673;52.262;6.830;2024-01-25T12:55:32;6.70;99.90
67870;DHT22;54673;52.262;6.830;2024-01-25T12:57:59;8.20;99.90
67870;DHT22;54673;52.262;6.830;2024-01-25T13:00:25;6.70;99.90
67870;DHT22;54673;52.262;6.830;2024-01-25T13:02:51;7.80;99.90
67870;DHT22;54673;52.262;6.830;2024-01-25T13:05:19;8.10;99.90
67870;DHT22;54673;52.262;6.830;2024-01-25T13:07:45;6.80;99.90
67870;DHT22;54673;52.262;6.830;2024-01-25T13:10:14;6.90;99.90
67870;DHT22;54673;52.262;6.830;2024-01-25T13:12:40;6.80;99.90
67870;DHT22;54673;52.262;6.830;2024-01-25T13:15:09;6.40;99.90
67870;DHT22;54673;52.262;6.830;2024-01-25T13:17:35;7.00;99.90
67870;DHT22;54673;52.262;6.830;2024-01-25T13:20:05;7.80;99.90
67870;DHT22;54673;52.262;6.830;2024-01-25T14:24:07;7.40;99.90
67870;DHT22;54673;52.262;6.830;2024-01-25T14:26:33;6.80;99.90
67870;DHT22;54673;52.262;6.830;2024-01-25T14:28:58;7.40;99.90
67870;DHT22;54673;52.262;6.830;2024-01-25T14:31:24;7.40;99.90
67870;DHT22;54673;52.262;6.830;2024-01-25T14:33:50;7.80;99.90
67870;DHT22;54673;52.262;6.830;2024-01-25T14:36:16;7.50;99.90
67870;DHT22;54673;52.262;6.830;2024-01-25T14:38:44;7.40;99.90
67870;DHT22;54673;52.262;6.830;2024-01-25T14:41:10;6.80;99.90
67870;DHT22;54673;52.262;6.830;2024-01-25T14:43:39;7.50;99.90
67870;DHT22;54673;52.262;6.830;2024-01-25T14:48:42;7.00;99.90
67870;DHT22;54673;52.262;6.830;2024-01-25T14:51:11;8.80;99.90
67870;DHT22;54673;52.262;6.830;2024-01-25T14:53:37;7.50;99.90
67870;DHT22;54673;52.262;6.830;2024-01-25T14:56:29;7.50;99.90
67870;DHT22;54673;52.262;6.830;2024-01-25T14:59:24;8.30;99.90
67870;DHT22;54673;52.262;6.830;2024-01-25T15:02:04;7.60;99.90
67870;DHT22;54673;52.262;6.830;2024-01-25T15:04:49;8.00;99.90
67870;DHT22;54673;52.262;6.830;2024-01-25T15:07:25;8.40;99.90
67870;DHT22;54673;52.262;6.830;2024-01-25T15:10:11;7.90;99.90
67870;DHT22;54673;52.262;6.830;2024-01-25T15:12:43;9.30;99.90
67870;DHT22;54673;52.262;6.830;2024-01-25T15:15:09;7.40;99.90
67870;DHT22;54673;52.262;6.830;2024-01-25T15:17:54;7.50;99.90
67870;DHT22;54673;52.262;6.830;2024-01-25T15:20:37;8.10;99.90
67870;DHT22;54673;52.262;6.830;2024-01-25T15:26:18;7.80;99.90
67870;DHT22;54673;52.262;6.830;2024-01-25T15:32:25;7.40;99.90
67870;DHT22;54673;52.262;6.830;2024-01-25T15:34:51;7.50;99.90
67870;DHT22;54673;52.262;6.830;2024-01-25T15:37:47;8.60;99.90
67870;DHT22;54673;52.262;6.830;2024-01-25T15:40:28;8.40;99.90
67870;DHT22;54673;52.262;6.830;2024-01-25T15:42:54;7.50;99.90
67870;DHT22;54673;52.262;6.830;2024-01-25T15:45:39;7.50;99.90
67870;DHT22;54673;52.262;6.830;2024-01-25T15:48:20;7.70;99.90
67870;DHT22;54673;52.262;6.830;2024-01-25T15:50:55;8.40;99.90
67870;DHT22;54673;52.262;6.830;2024-01-25T15:53:36;8.30;99.90
67870;DHT22;54673;52.262;6.830;2024-01-25T15:56:40;7.50;99.90
67870;DHT22;54673;52.262;6.830;2024-01-25T15:59:29;7.40;99.90
67870;DHT22;54673;52.262;6.830;2024-01-25T16:05:21;7.10;99.90
67870;DHT22;54673;52.262;6.830;2024-01-25T16:08:06;7.30;99.90
67870;DHT22;54673;52.262;6.830;2024-01-25T16:10:33;7.40;99.90
67870;DHT22;54673;52.262;6.830;2024-01-25T16:13:02;8.40;99.90
67870;DHT22;54673;52.262;6.830;2024-01-25T16:15:30;7.30;99.90
67870;DHT22;54673;52.262;6.830;2024-01-25T16:18:05;7.30;99.90
67870;DHT22;54673;52.262;6.830;2024-01-25T16:20:54;7.30;99.90
67870;DHT22;54673;52.262;6.830;2024-01-25T16:27:08;7.50;99.90
67870;DHT22;54673;52.262;6.830;2024-01-25T16:30:03;7.50;99.90
67870;DHT22;54673;52.262;6.830;2024-01-25T16:32:47;7.30;99.90
67870;DHT22;54673;52.262;6.830;2024-01-25T16:35:15;7.30;99.90
67870;DHT22;54673;52.262;6.830;2024-01-25T16:38:04;7.40;99.90
67870;DHT22;54673;52.262;6.830;2024-01-25T16:40:41;8.20;99.90
67870;DHT22;54673;52.262;6.830;2024-01-25T16:46:40;7.10;99.90
67870;DHT22;54673;52.262;6.830;2024-01-25T16:49:09;7.90;99.90
67870;DHT22;54673;52.262;6.830;2024-01-25T16:51:42;8.40;99.90
67870;DHT22;54673;52.262;6.830;2024-01-25T16:54:20;7.30;99.90
67870;DHT22;54673;52.262;6.830;2024-01-25T16:56:46;7.10;99.90
67870;DHT22;54673;52.262;6.830;2024-01-25T16:59:31;7.30;99.90
67870;DHT22;54673;52.262;6.830;2024-01-25T17:02:00;7.80;99.90
67870;DHT22;54673;52.262;6.830;2024-01-25T17:04:31;6.50;99.90
67870;DHT22;54673;52.262;6.830;2024-01-25T17:06:59;6.30;99.90
67870;DHT22;54673;52.262;6.830;2024-01-25T17:09:25;7.30;99.90
67870;DHT22;54673;52.262;6.830;2024-01-25T17:11:52;7.10;99.90
67870;DHT22;54673;52.262;6.830;2024-01-25T17:14:18;8.00;99.90
67870;DHT22;54673;52.262;6.830;2024-01-25T17:16:43;8.50;99.90
67870;DHT22;54673;52.262;6.830;2024-01-25T17:19:09;6.50;99.90
67870;DHT22;54673;52.262;6.830;2024-01-25T17:21:35;7.90;99.90
67870;DHT22;54673;52.262;6.830;2024-01-25T17:24:01;7.20;99.90
67870;DHT22;54673;52.262;6.830;2024-01-25T17:26:29;7.60;99.90
67870;DHT22;54673;52.262;6.830;2024-01-25T17:28:55;7.30;99.90
67870;DHT22;54673;52.262;6.830;2024-01-25T17:31:20;8.40;99.90
67870;DHT22;54673;52.262;6.830;2024-01-25T17:33:46;8.00;99.90
67870;DHT22;54673;52.262;6.830;2024-01-25T17:36:13;8.60;99.90
67870;DHT22;54673;52.262;6.830;2024-01-25T17:38:39;7.60;99.90
67870;DHT22;54673;52.262;6.830;2024-01-25T17:41:08;7.50;99.90
67870;DHT22;54673;52.262;6.830;2024-01-25T17:43:34;7.80;99.90
67870;DHT22;54673;52.262;6.830;2024-01-25T17:46:01;7.20;99.90
67870;DHT22;54673;52.262;6.830;2024-01-25T17:48:30;8.20;99.90
67870;DHT22;54673;52.262;6.830;2024-01-25T17:51:01;7.50;99.90
67870;DHT22;54673;52.262;6.830;2024-01-25T17:53:30;7.10;99.90
67870;DHT22;54673;52.262;6.830;2024-01-25T17:56:05;7.50;99.90
67870;DHT22;54673;52.262;6.830;2024-01-25T17:58:34;8.00;99.90
67870;DHT22;54673;52.262;6.830;2024-01-25T18:01:00;7.60;99.90
67870;DHT22;54673;52.262;6.830;2024-01-25T18:03:29;6.30;99.90
67870;DHT22;54673;52.262;6.830;2024-01-25T18:06:03;8.10;99.90
67870;DHT22;54673;52.262;6.830;2024-01-25T18:08:28;7.00;99.90
67870;DHT22;54673;52.262;6.830;2024-01-25T18:10:55;7.10;99.90
67870;DHT22;54673;52.262;6.830;2024-01-25T18:13:25;7.10;99.90
67870;DHT22;54673;52.262;6.830;2024-01-25T18:15:54;7.30;99.90
67870;DHT22;54673;52.262;6.830;2024-01-25T18:18:20;7.00;99.90
67870;DHT22;54673;52.262;6.830;2024-01-25T18:20:45;7.10;99.90
67870;DHT22;54673;52.262;6.830;2024-01-25T18:23:19;7.00;99.90
67870;DHT22;54673;52.262;6.830;2024-01-25T18:25:45;8.10;99.90
67870;DHT22;54673;52.262;6.830;2024-01-25T18:28:11;7.90;99.90
67870;DHT22;54673;52.262;6.830;2024-01-25T18:30:40;7.40;99.90
67870;DHT22;54673;52.262;6.830;2024-01-25T18:33:06;5.90;99.90
67870;DHT22;54673;52.262;6.830;2024-01-25T18:35:32;8.20;99.90
67870;DHT22;54673;52.262;6.830;2024-01-25T18:37:58;8.10;99.90
67870;DHT22;54673;52.262;6.830;2024-01-25T18:40:24;7.00;99.90
67870;DHT22;54673;52.262;6.830;2024-01-25T18:42:50;7.00;99.90
67870;DHT22;54673;52.262;6.830;2024-01-25T18:45:15;7.20;99.90
67870;DHT22;54673;52.262;6.830;2024-01-25T18:47:42;7.20;99.90
67870;DHT22;54673;52.262;6.830;2024-01-25T18:50:08;7.00;99.90
67870;DHT22;54673;52.262;6.830;2024-01-25T18:52:34;7.00;99.90
67870;DHT22;54673;52.262;6.830;2024-01-25T18:55:00;7.20;99.90
67870;DHT22;54673;52.262;6.830;2024-01-25T18:57:26;7.00;99.90
67870;DHT22;54673;52.262;6.830;2024-01-25T19:00:01;6.50;99.90
67870;DHT22;54673;52.262;6.830;2024-01-25T19:02:51;7.50;99.90
67870;DHT22;54673;52.262;6.830;2024-01-25T19:05:23;7.20;99.90
67870;DHT22;54673;52.262;6.830;2024-01-25T19:08:01;6.30;99.90
67870;DHT22;54673;52.262;6.830;2024-01-25T19:10:32;6.60;99.90
67870;DHT22;54673;52.262;6.830;2024-01-25T19:13:02;7.00;99.90
67870;DHT22;54673;52.262;6.830;2024-01-25T19:15:38;6.20;99.90
67870;DHT22;54673;52.262;6.830;2024-01-25T19:21:48;7.40;99.90
67870;DHT22;54673;52.262;6.830;2024-01-25T19:24:39;7.20;99.90
67870;DHT22;54673;52.262;6.830;2024-01-25T19:27:21;7.10;99.90
67870;DHT22;54673;52.262;6.830;2024-01-25T19:30:24;6.50;99.90
67870;DHT22;54673;52.262;6.830;2024-01-25T19:32:50;7.00;99.90
67870;DHT22;54673;52.262;6.830;2024-01-25T19:38:35;7.00;99.90
67870;DHT22;54673;52.262;6.830;2024-01-25T19:43:48;7.00;99.90
67870;DHT22;54673;52.262;6.830;2024-01-25T19:46:14;6.70;99.90
67870;DHT22;54673;52.262;6.830;2024-01-25T19:52:30;6.90;99.90
67870;DHT22;54673;52.262;6.830;2024-01-25T19:54:57;6.10;99.90
67870;DHT22;54673;52.262;6.830;2024-01-25T19:57:26;7.00;99.90
67870;DHT22;54673;52.262;6.830;2024-01-25T19:59:52;7.00;99.90
67870;DHT22;54673;52.262;6.830;2024-01-25T20:02:18;6.70;99.90
67870;DHT22;54673;52.262;6.830;2024-01-25T20:04:44;6.50;99.90
67870;DHT22;54673;52.262;6.830;2024-01-25T20:07:20;7.60;99.90
67870;DHT22;54673;52.262;6.830;2024-01-25T20:09:52;7.00;99.90
67870;DHT22;54673;52.262;6.830;2024-01-25T20:12:26;7.10;99.90
67870;DHT22;54673;52.262;6.830;2024-01-25T20:15:04;7.00;99.90
67870;DHT22;54673;52.262;6.830;2024-01-25T20:17:33;7.00;99.90
67870;DHT22;54673;52.262;6.830;2024-01-25T20:20:00;6.60;99.90
67870;DHT22;54673;52.262;6.830;2024-01-25T20:22:29;7.00;99.90
67870;DHT22;54673;52.262;6.830;2024-01-25T20:24:57;7.90;99.90
67870;DHT22;54673;52.262;6.830;2024-01-25T20:27:36;8.20;99.90
67870;DHT22;54673;52.262;6.830;2024-01-25T20:30:29;6.10;99.90
67870;DHT22;54673;52.262;6.830;2024-01-25T20:33:08;6.70;99.90
67870;DHT22;54673;52.262;6.830;2024-01-25T20:35:46;6.20;99.90
67870;DHT22;54673;52.262;6.830;2024-01-25T22:09:27;7.20;99.90
67870;DHT22;54673;52.262;6.830;2024-01-25T22:11:53;7.90;99.90
67870;DHT22;54673;52.262;6.830;2024-01-25T22:14:19;7.30;99.90
67870;DHT22;54673;52.262;6.830;2024-01-25T22:16:44;7.30;99.90
67870;DHT22;54673;52.262;6.830;2024-01-25T22:19:10;7.50;99.90
67870;DHT22;54673;52.262;6.830;2024-01-25T22:21:36;8.20;99.90
67870;DHT22;54673;52.262;6.830;2024-01-25T22:24:01;7.90;99.90
67870;DHT22;54673;52.262;6.830;2024-01-25T22:26:27;8.40;99.90
67870;DHT22;54673;52.262;6.830;2024-01-25T22:28:52;8.40;99.90